Austin Reinauer — WCX8055 — position and weather

sailwx.info

Track history (hours):
 
Tides and Currents Weather Stations Pressure Air Temp Water Temp Dewpoint Dewpoint Depression Visibility Wind Speed Wind Dir Waves Ship Positions

Austin Reinauer

Owner: REINAUER TRANSPORTATION CO. LLC, STATEN ISLAND, NY. More information available from US FCC via Universal Licensing System and Coast Guard Vessel Documentation Center.

Last reported at 2017-Dec-15 04:33 UTC. Time now 2017-Dec-15 08:06 UTC.
Position N 41°14' W 071°59'.

Length 33 m; draft 6.7 m.

Type: . MMSI: 366739920.

Date/timePositionNaut miles runAvg speedWind from/ knotsBaromVisibWave heightAir tempDewpointWater temp
2017-Dec-15 04:33N 41°14' W 071°59'110.6
2017-Dec-15 04:27N 41°14' W 071°60'510.6
2017-Dec-15 04:01N 41°15' W 072°06'1510.0
2017-Dec-15 02:30N 41°10' W 072°25'67 8.3
2017-Dec-14 18:29N 40°48' W 073°48'4 7.7
2017-Dec-14 18:00N 40°48' W 073°53'3 5.7
2017-Dec-14 17:29N 40°46' W 073°57'2 4.5
2017-Dec-14 17:00N 40°45' W 073°58'2 4.4
2017-Dec-14 16:30N 40°42' W 073°59'2 3.3
2017-Dec-14 16:00N 40°41' W 074°00'5 4.8
2017-Dec-14 14:59N 40°39' W 074°06'3 6.3
2017-Dec-14 14:30N 40°39' W 074°10'2 2.9
2017-Dec-14 13:49N 40°38' W 074°12'0 0.0
2017-Dec-14 13:28N 40°38' W 074°12'1 2.3
2017-Dec-14 13:00N 40°39' W 074°11'3 5.0
2017-Dec-14 12:27N 40°38' W 074°08'0 0.0
2017-Dec-14 11:06N 40°38' W 074°08'0 0.0
2017-Dec-14 10:54N 40°38' W 074°08'0 0.0
2017-Dec-14 10:27N 40°38' W 074°08'0 0.0
2017-Dec-14 10:00N 40°38' W 074°08'0 0.0
2017-Dec-14 09:30N 40°38' W 074°08'0 0.0
2017-Dec-14 09:00N 40°38' W 074°08'0 0.0
2017-Dec-14 08:27N 40°38' W 074°08'0 0.0
2017-Dec-14 08:00N 40°38' W 074°08'0 0.0
2017-Dec-14 07:27N 40°38' W 074°08'0 0.0
2017-Dec-14 07:00N 40°38' W 074°08'0 0.0
2017-Dec-14 06:27N 40°38' W 074°08'0 0.0
2017-Dec-14 06:00N 40°38' W 074°08'0 0.0
2017-Dec-14 05:30N 40°38' W 074°08'0 0.0
2017-Dec-14 05:00N 40°38' W 074°08'0 0.0
2017-Dec-14 04:29N 40°38' W 074°08'0 0.0
2017-Dec-14 03:53N 40°38' W 074°08'1 2.2
2017-Dec-14 03:30N 40°39' W 074°07'1 2.0
2017-Dec-14 03:00N 40°39' W 074°05'0 0.0
2017-Dec-14 02:27N 40°39' W 074°05'0 0.0
2017-Dec-14 02:00N 40°39' W 074°05'0 0.0
2017-Dec-14 01:27N 40°39' W 074°05'0 0.0
2017-Dec-14 00:57N 40°39' W 074°05'0 0.0
2017-Dec-14 00:30N 40°39' W 074°05'0 0.7
2017-Dec-14 00:00N 40°39' W 074°06'1 2.9
2017-Dec-13 23:29N 40°38' W 074°08'0 0.0
2017-Dec-13 22:59N 40°38' W 074°08'0 0.0
2017-Dec-13 22:26N 40°38' W 074°08'0 0.0
2017-Dec-13 21:59N 40°38' W 074°08'0 0.0
2017-Dec-13 21:29N 40°38' W 074°08'0 0.0
2017-Dec-13 20:59N 40°38' W 074°08'0 0.0
2017-Dec-13 20:29N 40°38' W 074°08'0 0.0
2017-Dec-13 19:59N 40°38' W 074°08'0 0.0
2017-Dec-13 19:29N 40°38' W 074°08'0 0.0
2017-Dec-13 18:59N 40°38' W 074°08'0 0.0
2017-Dec-13 18:29N 40°38' W 074°08'0 0.0
2017-Dec-13 17:56N 40°38' W 074°08'0 0.0
2017-Dec-13 17:29N 40°38' W 074°08'0 0.0
2017-Dec-13 17:00N 40°38' W 074°08'0 0.0
2017-Dec-13 16:30N 40°38' W 074°08'0 0.0
2017-Dec-13 16:00N 40°38' W 074°08'0 0.0
2017-Dec-13 15:27N 40°38' W 074°08'0 0.0
2017-Dec-13 15:00N 40°38' W 074°08'0 0.0
2017-Dec-13 14:27N 40°38' W 074°08'0 0.0
2017-Dec-13 13:54N 40°38' W 074°08'0 0.0
2017-Dec-13 13:27N 40°38' W 074°08'0 0.0
2017-Dec-13 13:00N 40°38' W 074°08'0 0.0
2017-Dec-13 12:30N 40°38' W 074°08'0 0.1
2017-Dec-13 12:01N 40°38' W 074°08'3 6.5
2017-Dec-13 11:30N 40°38' W 074°12'0 0.6
2017-Dec-13 11:00N 40°38' W 074°12'0 0.1
2017-Dec-13 10:30N 40°38' W 074°12'2 4.8
2017-Dec-13 10:00N 40°39' W 074°09'4 8.5
2017-Dec-13 09:30N 40°39' W 074°04'4 8.4
2017-Dec-13 09:00N 40°42' W 073°60'3 6.5
2017-Dec-13 08:30N 40°45' W 073°58'3 5.5
2017-Dec-13 08:00N 40°47' W 073°55'4 7.0
2017-Dec-13 07:27N 40°48' W 073°50'3 6.7
2017-Dec-13 07:00N 40°50' W 073°47'10 0.3
2017-Dec-11 23:10N 40°56' W 073°36'1 8.7
2017-Dec-11 23:00N 40°55' W 073°38'4 8.5
2017-Dec-11 22:30N 40°53' W 073°43'4 8.6
2017-Dec-11 22:00N 40°50' W 073°47'4 6.7
2017-Dec-11 21:28N 40°48' W 073°51'4 7.7
2017-Dec-11 21:00N 40°47' W 073°55'4 8.4
2017-Dec-11 20:30N 40°43' W 073°58'4 8.7
2017-Dec-11 20:00N 40°40' W 074°02'2 4.2
2017-Dec-11 19:29N 40°38' W 074°03'0 0.2
2017-Dec-11 18:59N 40°38' W 074°03'2 4.6
2017-Dec-11 18:28N 40°39' W 074°06'3 5.4
2017-Dec-11 18:00N 40°39' W 074°09'3 2.5
2017-Dec-11 17:01N 40°38' W 074°12'0 0.1
2017-Dec-11 16:55N 40°38' W 074°12'0 0.0
2017-Dec-11 16:28N 40°38' W 074°12'0 0.0
2017-Dec-11 15:58N 40°38' W 074°12'0 0.0
2017-Dec-11 14:46N 40°38' W 074°12'0 0.0
2017-Dec-11 14:16N 40°38' W 074°12'0 0.0
2017-Dec-11 12:46N 40°38' W 074°12'0 0.0
2017-Dec-11 12:28N 40°38' W 074°12'0 0.0
2017-Dec-11 11:58N 40°38' W 074°12'0 0.0
2017-Dec-11 11:28N 40°38' W 074°12'0 0.0
2017-Dec-11 10:55N 40°38' W 074°12'0 0.0
2017-Dec-11 10:28N 40°38' W 074°12'0 0.0
2017-Dec-11 09:58N 40°38' W 074°12'0 0.0
2017-Dec-11 09:28N 40°38' W 074°12'0 0.0
2017-Dec-11 08:52N 40°38' W 074°12'0 0.0
2017-Dec-11 08:28N 40°38' W 074°12'0 0.0
2017-Dec-11 07:58N 40°38' W 074°12'0 0.0
2017-Dec-11 07:28N 40°38' W 074°12'0 0.0
2017-Dec-11 06:58N 40°38' W 074°12'0 0.0
2017-Dec-11 06:16N 40°38' W 074°12'0 0.0
2017-Dec-11 05:52N 40°38' W 074°12'0 0.0
2017-Dec-11 05:28N 40°38' W 074°12'0 0.0
2017-Dec-11 04:55N 40°38' W 074°12'0 0.0
2017-Dec-11 04:13N 40°38' W 074°12'0 0.0
2017-Dec-11 03:49N 40°38' W 074°12'0 0.0
2017-Dec-11 03:25N 40°38' W 074°12'0 0.0
2017-Dec-11 02:55N 40°38' W 074°12'0 0.0
2017-Dec-11 02:19N 40°38' W 074°12'0 0.0
2017-Dec-11 01:55N 40°38' W 074°12'0 0.0
2017-Dec-11 01:19N 40°38' W 074°12'0 0.0
2017-Dec-11 00:49N 40°38' W 074°12'0 0.0
2017-Dec-11 00:25N 40°38' W 074°12'0 0.0
2017-Dec-10 23:55N 40°38' W 074°12'0 0.0
2017-Dec-10 23:13N 40°38' W 074°12'0 0.0
2017-Dec-10 23:01N 40°38' W 074°12'0 0.0
2017-Dec-10 22:31N 40°38' W 074°12'0 0.0
2017-Dec-10 22:00N 40°38' W 074°12'0 0.0
2017-Dec-10 21:30N 40°38' W 074°12'0 0.0
2017-Dec-10 21:00N 40°38' W 074°12'0 0.0
2017-Dec-10 20:30N 40°38' W 074°12'0 0.0
2017-Dec-10 20:00N 40°38' W 074°12'0 0.0
2017-Dec-10 19:18N 40°38' W 074°12'0 0.0
2017-Dec-10 19:00N 40°38' W 074°12'0 0.0
2017-Dec-10 18:30N 40°38' W 074°12'0 0.0
2017-Dec-10 18:00N 40°38' W 074°12'0 0.0
2017-Dec-10 17:30N 40°38' W 074°12'0 0.0
2017-Dec-10 17:00N 40°38' W 074°12'0 0.0
2017-Dec-10 16:30N 40°38' W 074°12'0 0.0
2017-Dec-10 16:00N 40°38' W 074°12'0 0.0
2017-Dec-10 15:27N 40°38' W 074°12'0 0.0
2017-Dec-10 14:57N 40°38' W 074°12'0 0.0
2017-Dec-10 14:27N 40°38' W 074°12'0 0.0
2017-Dec-10 13:57N 40°38' W 074°12'0 0.0
2017-Dec-10 13:30N 40°38' W 074°12'0 0.0
2017-Dec-10 13:00N 40°38' W 074°12'0 0.0
2017-Dec-10 12:30N 40°38' W 074°12'0 0.0
2017-Dec-10 12:00N 40°38' W 074°12'0 0.0
2017-Dec-10 11:06N 40°38' W 074°12'0 0.0
2017-Dec-10 11:00N 40°38' W 074°12'0 0.0
2017-Dec-10 10:30N 40°38' W 074°12'0 0.0
2017-Dec-10 09:54N 40°38' W 074°12'0 0.0
2017-Dec-10 09:30N 40°38' W 074°12'0 0.0
2017-Dec-10 09:00N 40°38' W 074°12'0 0.0
2017-Dec-10 08:30N 40°38' W 074°12'0 0.0
2017-Dec-10 08:00N 40°38' W 074°12'0 0.0
2017-Dec-10 07:30N 40°38' W 074°12'0 0.0
2017-Dec-10 06:57N 40°38' W 074°12'0 0.0
2017-Dec-10 06:30N 40°38' W 074°12'0 0.0
2017-Dec-10 05:57N 40°38' W 074°12'0 0.0
2017-Dec-10 05:24N 40°38' W 074°12'0 0.0
2017-Dec-10 05:00N 40°38' W 074°12'0 0.0
2017-Dec-10 04:24N 40°38' W 074°12'0 0.0
2017-Dec-10 04:00N 40°38' W 074°12'0 0.0
2017-Dec-10 03:30N 40°38' W 074°12'0 0.0
2017-Dec-10 03:00N 40°38' W 074°12'0 0.0
2017-Dec-10 02:30N 40°38' W 074°12'0 0.0
2017-Dec-10 01:57N 40°38' W 074°12'0 0.0
2017-Dec-10 01:27N 40°38' W 074°12'0 0.0
2017-Dec-10 01:00N 40°38' W 074°12'0 0.0
2017-Dec-10 00:27N 40°38' W 074°12'0 0.0
2017-Dec-10 00:00N 40°38' W 074°12'0 0.0
2017-Dec-09 23:24N 40°38' W 074°12'0 0.2
2017-Dec-09 23:00N 40°38' W 074°12'4 7.9
2017-Dec-09 22:30N 40°39' W 074°07'3 6.7
2017-Dec-09 22:00N 40°39' W 074°03'1 1.3
2017-Dec-09 21:30N 40°40' W 074°03'510.0
2017-Dec-09 21:00N 40°43' W 073°58'5 9.2
2017-Dec-09 20:29N 40°47' W 073°55'6 9.1
2017-Dec-09 19:50N 40°48' W 073°47'4510.7
2017-Dec-09 15:36N 41°11' W 072°56'32 1.0
2017-Dec-08 07:37N 40°57' W 073°34'4 8.8
2017-Dec-08 07:12N 40°55' W 073°38'2 8.7
2017-Dec-08 06:59N 40°54' W 073°40'4 8.6
2017-Dec-08 06:30N 40°52' W 073°45'4 8.4
2017-Dec-08 06:00N 40°48' W 073°47'4 8.9
2017-Dec-08 05:30N 40°48' W 073°53'4 7.6
2017-Dec-08 05:00N 40°46' W 073°57'4 7.9
2017-Dec-08 04:30N 40°42' W 073°60'4 8.6
2017-Dec-08 04:00N 40°39' W 074°03'3 6.7
2017-Dec-08 03:30N 40°39' W 074°08'3 6.2
2017-Dec-08 02:58N 40°38' W 074°12'3 6.4
2017-Dec-08 02:29N 40°35' W 074°13'3 5.5
2017-Dec-08 01:56N 40°32' W 074°15'  
Track history (hours):
 
Tides and Currents Weather Stations Pressure Air Temp Water Temp Dewpoint Dewpoint Depression Visibility Wind Speed Wind Dir Waves Ship Positions

Austin Reinauer

Owner: REINAUER TRANSPORTATION CO. LLC, STATEN ISLAND, NY. More information available from US FCC via Universal Licensing System and Coast Guard Vessel Documentation Center.

Last reported at 2017-Dec-15 04:33 UTC. Time now 2017-Dec-15 08:06 UTC.
Position N 41°14' W 071°59'.

Length 33 m; draft 6.7 m.

Type: . MMSI: 366739920.

Date/timePositionNaut miles runAvg speedWind from/ knotsBaromVisibWave heightAir tempDewpointWater temp
2017-Dec-15 04:33N 41°14' W 071°59'110.6
2017-Dec-15 04:27N 41°14' W 071°60'510.6
2017-Dec-15 04:01N 41°15' W 072°06'1510.0
2017-Dec-15 02:30N 41°10' W 072°25'67 8.3
2017-Dec-14 18:29N 40°48' W 073°48'4 7.7
2017-Dec-14 18:00N 40°48' W 073°53'3 5.7
2017-Dec-14 17:29N 40°46' W 073°57'2 4.5
2017-Dec-14 17:00N 40°45' W 073°58'2 4.4
2017-Dec-14 16:30N 40°42' W 073°59'2 3.3
2017-Dec-14 16:00N 40°41' W 074°00'5 4.8
2017-Dec-14 14:59N 40°39' W 074°06'3 6.3
2017-Dec-14 14:30N 40°39' W 074°10'2 2.9
2017-Dec-14 13:49N 40°38' W 074°12'0 0.0
2017-Dec-14 13:28N 40°38' W 074°12'1 2.3
2017-Dec-14 13:00N 40°39' W 074°11'3 5.0
2017-Dec-14 12:27N 40°38' W 074°08'0 0.0
2017-Dec-14 11:06N 40°38' W 074°08'0 0.0
2017-Dec-14 10:54N 40°38' W 074°08'0 0.0
2017-Dec-14 10:27N 40°38' W 074°08'0 0.0
2017-Dec-14 10:00N 40°38' W 074°08'0 0.0
2017-Dec-14 09:30N 40°38' W 074°08'0 0.0
2017-Dec-14 09:00N 40°38' W 074°08'0 0.0
2017-Dec-14 08:27N 40°38' W 074°08'0 0.0
2017-Dec-14 08:00N 40°38' W 074°08'0 0.0
2017-Dec-14 07:27N 40°38' W 074°08'0 0.0
2017-Dec-14 07:00N 40°38' W 074°08'0 0.0
2017-Dec-14 06:27N 40°38' W 074°08'0 0.0
2017-Dec-14 06:00N 40°38' W 074°08'0 0.0
2017-Dec-14 05:30N 40°38' W 074°08'0 0.0
2017-Dec-14 05:00N 40°38' W 074°08'0 0.0
2017-Dec-14 04:29N 40°38' W 074°08'0 0.0
2017-Dec-14 03:53N 40°38' W 074°08'1 2.2
2017-Dec-14 03:30N 40°39' W 074°07'1 2.0
2017-Dec-14 03:00N 40°39' W 074°05'0 0.0
2017-Dec-14 02:27N 40°39' W 074°05'0 0.0
2017-Dec-14 02:00N 40°39' W 074°05'0 0.0
2017-Dec-14 01:27N 40°39' W 074°05'0 0.0
2017-Dec-14 00:57N 40°39' W 074°05'0 0.0
2017-Dec-14 00:30N 40°39' W 074°05'0 0.7
2017-Dec-14 00:00N 40°39' W 074°06'1 2.9
2017-Dec-13 23:29N 40°38' W 074°08'0 0.0
2017-Dec-13 22:59N 40°38' W 074°08'0 0.0
2017-Dec-13 22:26N 40°38' W 074°08'0 0.0
2017-Dec-13 21:59N 40°38' W 074°08'0 0.0
2017-Dec-13 21:29N 40°38' W 074°08'0 0.0
2017-Dec-13 20:59N 40°38' W 074°08'0 0.0
2017-Dec-13 20:29N 40°38' W 074°08'0 0.0
2017-Dec-13 19:59N 40°38' W 074°08'0 0.0
2017-Dec-13 19:29N 40°38' W 074°08'0 0.0
2017-Dec-13 18:59N 40°38' W 074°08'0 0.0
2017-Dec-13 18:29N 40°38' W 074°08'0 0.0
2017-Dec-13 17:56N 40°38' W 074°08'0 0.0
2017-Dec-13 17:29N 40°38' W 074°08'0 0.0
2017-Dec-13 17:00N 40°38' W 074°08'0 0.0
2017-Dec-13 16:30N 40°38' W 074°08'0 0.0
2017-Dec-13 16:00N 40°38' W 074°08'0 0.0
2017-Dec-13 15:27N 40°38' W 074°08'0 0.0
2017-Dec-13 15:00N 40°38' W 074°08'0 0.0
2017-Dec-13 14:27N 40°38' W 074°08'0 0.0
2017-Dec-13 13:54N 40°38' W 074°08'0 0.0
2017-Dec-13 13:27N 40°38' W 074°08'0 0.0
2017-Dec-13 13:00N 40°38' W 074°08'0 0.0
2017-Dec-13 12:30N 40°38' W 074°08'0 0.1
2017-Dec-13 12:01N 40°38' W 074°08'3 6.5
2017-Dec-13 11:30N 40°38' W 074°12'0 0.6
2017-Dec-13 11:00N 40°38' W 074°12'0 0.1
2017-Dec-13 10:30N 40°38' W 074°12'2 4.8
2017-Dec-13 10:00N 40°39' W 074°09'4 8.5
2017-Dec-13 09:30N 40°39' W 074°04'4 8.4
2017-Dec-13 09:00N 40°42' W 073°60'3 6.5
2017-Dec-13 08:30N 40°45' W 073°58'3 5.5
2017-Dec-13 08:00N 40°47' W 073°55'4 7.0
2017-Dec-13 07:27N 40°48' W 073°50'3 6.7
2017-Dec-13 07:00N 40°50' W 073°47'10 0.3
2017-Dec-11 23:10N 40°56' W 073°36'1 8.7
2017-Dec-11 23:00N 40°55' W 073°38'4 8.5
2017-Dec-11 22:30N 40°53' W 073°43'4 8.6
2017-Dec-11 22:00N 40°50' W 073°47'4 6.7
2017-Dec-11 21:28N 40°48' W 073°51'4 7.7
2017-Dec-11 21:00N 40°47' W 073°55'4 8.4
2017-Dec-11 20:30N 40°43' W 073°58'4 8.7
2017-Dec-11 20:00N 40°40' W 074°02'2 4.2
2017-Dec-11 19:29N 40°38' W 074°03'0 0.2
2017-Dec-11 18:59N 40°38' W 074°03'2 4.6
2017-Dec-11 18:28N 40°39' W 074°06'3 5.4
2017-Dec-11 18:00N 40°39' W 074°09'3 2.5
2017-Dec-11 17:01N 40°38' W 074°12'0 0.1
2017-Dec-11 16:55N 40°38' W 074°12'0 0.0
2017-Dec-11 16:28N 40°38' W 074°12'0 0.0
2017-Dec-11 15:58N 40°38' W 074°12'0 0.0
2017-Dec-11 14:46N 40°38' W 074°12'0 0.0
2017-Dec-11 14:16N 40°38' W 074°12'0 0.0
2017-Dec-11 12:46N 40°38' W 074°12'0 0.0
2017-Dec-11 12:28N 40°38' W 074°12'0 0.0
2017-Dec-11 11:58N 40°38' W 074°12'0 0.0
2017-Dec-11 11:28N 40°38' W 074°12'0 0.0
2017-Dec-11 10:55N 40°38' W 074°12'0 0.0
2017-Dec-11 10:28N 40°38' W 074°12'0 0.0
2017-Dec-11 09:58N 40°38' W 074°12'0 0.0
2017-Dec-11 09:28N 40°38' W 074°12'0 0.0
2017-Dec-11 08:52N 40°38' W 074°12'0 0.0
2017-Dec-11 08:28N 40°38' W 074°12'0 0.0
2017-Dec-11 07:58N 40°38' W 074°12'0 0.0
2017-Dec-11 07:28N 40°38' W 074°12'0 0.0
2017-Dec-11 06:58N 40°38' W 074°12'0 0.0
2017-Dec-11 06:16N 40°38' W 074°12'0 0.0
2017-Dec-11 05:52N 40°38' W 074°12'0 0.0
2017-Dec-11 05:28N 40°38' W 074°12'0 0.0
2017-Dec-11 04:55N 40°38' W 074°12'0 0.0
2017-Dec-11 04:13N 40°38' W 074°12'0 0.0
2017-Dec-11 03:49N 40°38' W 074°12'0 0.0
2017-Dec-11 03:25N 40°38' W 074°12'0 0.0
2017-Dec-11 02:55N 40°38' W 074°12'0 0.0
2017-Dec-11 02:19N 40°38' W 074°12'0 0.0
2017-Dec-11 01:55N 40°38' W 074°12'0 0.0
2017-Dec-11 01:19N 40°38' W 074°12'0 0.0
2017-Dec-11 00:49N 40°38' W 074°12'0 0.0
2017-Dec-11 00:25N 40°38' W 074°12'0 0.0
2017-Dec-10 23:55N 40°38' W 074°12'0 0.0
2017-Dec-10 23:13N 40°38' W 074°12'0 0.0
2017-Dec-10 23:01N 40°38' W 074°12'0 0.0
2017-Dec-10 22:31N 40°38' W 074°12'0 0.0
2017-Dec-10 22:00N 40°38' W 074°12'0 0.0
2017-Dec-10 21:30N 40°38' W 074°12'0 0.0
2017-Dec-10 21:00N 40°38' W 074°12'0 0.0
2017-Dec-10 20:30N 40°38' W 074°12'0 0.0
2017-Dec-10 20:00N 40°38' W 074°12'0 0.0
2017-Dec-10 19:18N 40°38' W 074°12'0 0.0
2017-Dec-10 19:00N 40°38' W 074°12'0 0.0
2017-Dec-10 18:30N 40°38' W 074°12'0 0.0
2017-Dec-10 18:00N 40°38' W 074°12'0 0.0
2017-Dec-10 17:30N 40°38' W 074°12'0 0.0
2017-Dec-10 17:00N 40°38' W 074°12'0 0.0
2017-Dec-10 16:30N 40°38' W 074°12'0 0.0
2017-Dec-10 16:00N 40°38' W 074°12'0 0.0
2017-Dec-10 15:27N 40°38' W 074°12'0 0.0
2017-Dec-10 14:57N 40°38' W 074°12'0 0.0
2017-Dec-10 14:27N 40°38' W 074°12'0 0.0
2017-Dec-10 13:57N 40°38' W 074°12'0 0.0
2017-Dec-10 13:30N 40°38' W 074°12'0 0.0
2017-Dec-10 13:00N 40°38' W 074°12'0 0.0
2017-Dec-10 12:30N 40°38' W 074°12'0 0.0
2017-Dec-10 12:00N 40°38' W 074°12'0 0.0
2017-Dec-10 11:06N 40°38' W 074°12'0 0.0
2017-Dec-10 11:00N 40°38' W 074°12'0 0.0
2017-Dec-10 10:30N 40°38' W 074°12'0 0.0
2017-Dec-10 09:54N 40°38' W 074°12'0 0.0
2017-Dec-10 09:30N 40°38' W 074°12'0 0.0
2017-Dec-10 09:00N 40°38' W 074°12'0 0.0
2017-Dec-10 08:30N 40°38' W 074°12'0 0.0
2017-Dec-10 08:00N 40°38' W 074°12'0 0.0
2017-Dec-10 07:30N 40°38' W 074°12'0 0.0
2017-Dec-10 06:57N 40°38' W 074°12'0 0.0
2017-Dec-10 06:30N 40°38' W 074°12'0 0.0
2017-Dec-10 05:57N 40°38' W 074°12'0 0.0
2017-Dec-10 05:24N 40°38' W 074°12'0 0.0
2017-Dec-10 05:00N 40°38' W 074°12'0 0.0
2017-Dec-10 04:24N 40°38' W 074°12'0 0.0
2017-Dec-10 04:00N 40°38' W 074°12'0 0.0
2017-Dec-10 03:30N 40°38' W 074°12'0 0.0
2017-Dec-10 03:00N 40°38' W 074°12'0 0.0
2017-Dec-10 02:30N 40°38' W 074°12'0 0.0
2017-Dec-10 01:57N 40°38' W 074°12'0 0.0
2017-Dec-10 01:27N 40°38' W 074°12'0 0.0
2017-Dec-10 01:00N 40°38' W 074°12'0 0.0
2017-Dec-10 00:27N 40°38' W 074°12'0 0.0
2017-Dec-10 00:00N 40°38' W 074°12'0 0.0
2017-Dec-09 23:24N 40°38' W 074°12'0 0.2
2017-Dec-09 23:00N 40°38' W 074°12'4 7.9
2017-Dec-09 22:30N 40°39' W 074°07'3 6.7
2017-Dec-09 22:00N 40°39' W 074°03'1 1.3
2017-Dec-09 21:30N 40°40' W 074°03'510.0
2017-Dec-09 21:00N 40°43' W 073°58'5 9.2
2017-Dec-09 20:29N 40°47' W 073°55'6 9.1
2017-Dec-09 19:50N 40°48' W 073°47'4510.7
2017-Dec-09 15:36N 41°11' W 072°56'32 1.0
2017-Dec-08 07:37N 40°57' W 073°34'4 8.8
2017-Dec-08 07:12N 40°55' W 073°38'2 8.7
2017-Dec-08 06:59N 40°54' W 073°40'4 8.6
2017-Dec-08 06:30N 40°52' W 073°45'4 8.4
2017-Dec-08 06:00N 40°48' W 073°47'4 8.9
2017-Dec-08 05:30N 40°48' W 073°53'4 7.6
2017-Dec-08 05:00N 40°46' W 073°57'4 7.9
2017-Dec-08 04:30N 40°42' W 073°60'4 8.6
2017-Dec-08 04:00N 40°39' W 074°03'3 6.7
2017-Dec-08 03:30N 40°39' W 074°08'3 6.2
2017-Dec-08 02:58N 40°38' W 074°12'3 6.4
2017-Dec-08 02:29N 40°35' W 074°13'3 5.5
2017-Dec-08 01:56N 40°32' W 074°15'  

Dump ship's entire track history